Time;durP1;ratioP1;P1;durP2;ratioP2;P2;SDS_P1;SDS_P2;PMS_P1;PMS_P2;Temp;Humidity;BMP_temperature;BMP_pressure;BME280_temperature;BME280_humidity;BME280_pressure;Samples;Min_cycle;Max_cycle;Signal;HPM_P1;HPM_P2
2024/01/11 00:00:40;;;;;;;39.55;14.73;;;;;;;;;;5093459;28;20113;-75
2024/01/11 00:03:06;;;;;;;39.58;15.57;;;;;;;;;;5093362;28;20069;-75
2024/01/11 00:05:32;;;;;;;38.33;15.45;;;;;;;;;;5094312;28;20086;-75
2024/01/11 00:07:58;;;;;;;41.40;16.13;;;;;;;;;;5093087;28;20043;-75
2024/01/11 00:10:24;;;;;;;43.85;17.88;;;;;;;;;;5094275;28;20078;-76
2024/01/11 00:12:50;;;;;;;42.47;15.90;;;;;;;;;;5092777;28;20052;-76
2024/01/11 00:15:16;;;;;;;39.38;14.93;;;;;;;;;;5093295;28;20488;-74
2024/01/11 00:17:42;;;;;;;51.60;21.88;;;;;;;;;;5095035;28;20105;-75
2024/01/11 00:20:09;;;;;;;47.47;19.23;;;;;;;;;;5094291;28;20056;-75
2024/01/11 00:22:35;;;;;;;42.88;16.02;;;;;;;;;;5094549;28;20495;-76
2024/01/11 00:25:01;;;;;;;42.70;15.95;;;;;;;;;;5094277;28;20048;-75
2024/01/11 00:27:27;;;;;;;46.45;17.50;;;;;;;;;;5094490;28;20059;-75
2024/01/11 00:29:54;;;;;;;45.08;18.35;;;;;;;;;;5093371;28;20051;-75
2024/01/11 00:32:21;;;;;;;47.03;17.17;;;;;;;;;;5094142;28;20047;-75
2024/01/11 00:34:47;;;;;;;43.13;15.88;;;;;;;;;;5094177;28;20392;-75
2024/01/11 00:37:13;;;;;;;44.33;16.30;;;;;;;;;;5095071;28;20482;-75
2024/01/11 00:39:39;;;;;;;38.50;15.77;;;;;;;;;;5094395;28;20055;-74
2024/01/11 00:42:05;;;;;;;42.20;16.52;;;;;;;;;;5093404;28;20044;-75
2024/01/11 00:44:31;;;;;;;44.47;16.83;;;;;;;;;;5094389;28;20048;-74
2024/01/11 00:46:57;;;;;;;32.83;12.05;;;;;;;;;;5093777;28;20433;-74
2024/01/11 00:49:23;;;;;;;47.80;18.42;;;;;;;;;;5094565;28;20040;-76
2024/01/11 00:51:50;;;;;;;56.85;23.05;;;;;;;;;;5093672;28;20131;-75
2024/01/11 00:54:16;;;;;;;33.20;12.50;;;;;;;;;;5076671;28;20044;-75
2024/01/11 00:56:42;;;;;;;41.92;17.25;;;;;;;;;;5096262;28;20097;-74
2024/01/11 00:59:08;;;;;;;47.03;17.85;;;;;;;;;;5098234;28;20111;-73
2024/01/11 01:01:34;;;;;;;48.88;20.10;;;;;;;;;;5097238;28;20063;-74
2024/01/11 01:04:00;;;;;;;46.20;18.08;;;;;;;;;;5102366;28;20051;-74
2024/01/11 01:06:27;;;;;;;48.78;19.23;;;;;;;;;;5109612;28;20085;-75
2024/01/11 01:08:53;;;;;;;46.22;17.08;;;;;;;;;;5111713;28;20052;-75
2024/01/11 01:11:19;;;;;;;37.13;15.48;;;;;;;;;;5105818;28;20195;-75
2024/01/11 01:13:45;;;;;;;45.28;17.83;;;;;;;;;;5101258;28;20058;-74
2024/01/11 01:16:11;;;;;;;42.25;17.02;;;;;;;;;;5102324;28;20058;-75
2024/01/11 01:18:37;;;;;;;40.55;15.38;;;;;;;;;;5100113;28;20048;-73
2024/01/11 01:21:06;;;;;;;41.05;15.57;;;;;;;;;;5098512;28;20055;-74
2024/01/11 01:23:33;;;;;;;41.65;15.25;;;;;;;;;;5098130;28;20058;-74
2024/01/11 01:25:59;;;;;;;47.65;18.27;;;;;;;;;;5097657;28;20040;-76
2024/01/11 01:28:25;;;;;;;52.20;21.20;;;;;;;;;;5098399;28;20047;-74
2024/01/11 01:30:51;;;;;;;47.08;16.45;;;;;;;;;;5097523;28;20044;-75
2024/01/11 01:33:17;;;;;;;51.25;19.98;;;;;;;;;;5097492;28;20040;-75
2024/01/11 01:35:43;;;;;;;51.08;19.08;;;;;;;;;;5097410;28;20048;-74
2024/01/11 01:38:09;;;;;;;46.92;17.90;;;;;;;;;;5097204;28;20420;-74
2024/01/11 01:40:35;;;;;;;45.15;16.67;;;;;;;;;;5079784;28;20105;-75
2024/01/11 01:43:01;;;;;;;42.00;17.13;;;;;;;;;;5096222;28;20048;-74
2024/01/11 01:45:28;;;;;;;57.17;21.13;;;;;;;;;;5095921;28;20040;-76
2024/01/11 01:47:54;;;;;;;48.30;17.48;;;;;;;;;;5096973;28;20397;-74
2024/01/11 01:50:21;;;;;;;48.72;16.67;;;;;;;;;;5097116;28;20048;-74
2024/01/11 01:52:47;;;;;;;45.90;17.42;;;;;;;;;;5097007;28;20069;-74
2024/01/11 01:55:15;;;;;;;44.07;15.20;;;;;;;;;;5096021;28;20127;-74
2024/01/11 01:57:41;;;;;;;;;;;;;;;;;;5079254;28;20452;-75
2024/01/11 02:00:09;;;;;;;42.08;15.63;;;;;;;;;;5097165;28;20049;-74
2024/01/11 02:02:36;;;;;;;47.05;17.05;;;;;;;;;;5096114;28;20044;-74
2024/01/11 02:05:02;;;;;;;46.40;17.10;;;;;;;;;;5097468;28;20188;-74
2024/01/11 02:07:28;;;;;;;45.65;17.63;;;;;;;;;;5095509;28;20079;-75
2024/01/11 02:09:54;;;;;;;43.00;16.42;;;;;;;;;;5096008;28;20131;-73
2024/01/11 02:12:21;;;;;;;51.75;21.00;;;;;;;;;;5096766;28;20048;-75
2024/01/11 02:14:47;;;;;;;50.08;18.35;;;;;;;;;;5096684;28;20047;-74
2024/01/11 02:17:13;;;;;;;59.67;24.63;;;;;;;;;;5095181;28;20040;-75
2024/01/11 02:19:39;;;;;;;48.80;17.70;;;;;;;;;;5095231;28;20060;-74
2024/01/11 02:22:25;;;;;;;53.33;18.55;;;;;;;;;;5095226;28;20048;-74
2024/01/11 02:24:53;;;;;;;48.70;16.20;;;;;;;;;;5078475;28;20051;-75
2024/01/11 02:27:19;;;;;;;;;;;;;;;;;;5095491;28;20400;-74
2024/01/11 02:29:45;;;;;;;51.40;17.40;;;;;;;;;;5096346;28;19920;-75
2024/01/11 02:32:11;;;;;;;40.70;14.95;;;;;;;;;;5078370;28;20044;-75
2024/01/11 02:34:38;;;;;;;46.65;18.20;;;;;;;;;;5095186;28;20044;-75
2024/01/11 02:37:05;;;;;;;44.92;17.17;;;;;;;;;;5096073;28;20040;-75
2024/01/11 02:39:31;;;;;;;46.15;16.83;;;;;;;;;;5096829;28;20052;-76
2024/01/11 02:41:58;;;;;;;43.30;17.20;;;;;;;;;;5096095;28;20056;-75
2024/01/11 02:44:24;;;;;;;44.88;17.10;;;;;;;;;;5095559;28;20389;-75
2024/01/11 02:46:50;;;;;;;46.63;16.67;;;;;;;;;;5095336;28;20051;-75
2024/01/11 02:49:16;;;;;;;40.53;16.65;;;;;;;;;;5095304;28;20054;-76
2024/01/11 02:51:42;;;;;;;44.95;17.05;;;;;;;;;;5094841;28;20044;-75
2024/01/11 02:54:08;;;;;;;48.75;19.50;;;;;;;;;;5094790;28;20140;-75
2024/01/11 02:56:34;;;;;;;43.67;15.93;;;;;;;;;;5096477;28;20044;-74
2024/01/11 02:59:00;;;;;;;50.83;17.73;;;;;;;;;;5095266;28;20072;-85
2024/01/11 03:01:26;;;;;;;43.53;15.95;;;;;;;;;;5095782;28;20055;-86
2024/01/11 03:03:53;;;;;;;46.05;16.67;;;;;;;;;;5096068;28;20418;-85
2024/01/11 03:06:21;;;;;;;43.30;16.50;;;;;;;;;;5078106;28;20040;-86
2024/01/11 03:08:48;;;;;;;43.20;16.33;;;;;;;;;;5095112;28;20078;-84
2024/01/11 03:11:14;;;;;;;49.80;16.73;;;;;;;;;;5095264;28;20100;-86
2024/01/11 03:13:40;;;;;;;46.47;16.58;;;;;;;;;;5095310;28;20051;-84
2024/01/11 03:16:06;;;;;;;49.97;17.55;;;;;;;;;;5095811;28;20044;-84
2024/01/11 03:18:39;;;;;;;45.65;16.30;;;;;;;;;;5079117;28;20047;-83
2024/01/11 03:21:05;;;;;;;44.60;17.40;;;;;;;;;;5095663;28;20052;-85
2024/01/11 03:23:31;;;;;;;48.25;17.02;;;;;;;;;;5080180;28;20502;-83
2024/01/11 03:25:57;;;;;;;42.92;16.17;;;;;;;;;;5104229;28;20044;-85
2024/01/11 03:28:23;;;;;;;44.17;15.88;;;;;;;;;;5105814;28;20052;-83
2024/01/11 03:30:49;;;;;;;49.03;18.50;;;;;;;;;;5102843;28;20048;-84
2024/01/11 03:33:15;;;;;;;49.95;17.88;;;;;;;;;;5103411;28;20044;-84
2024/01/11 03:35:43;;;;;;;47.15;16.60;;;;;;;;;;5099972;28;20044;-85
2024/01/11 03:38:09;;;;;;;47.72;17.13;;;;;;;;;;5097678;28;20075;-84
2024/01/11 03:40:35;;;;;;;35.97;13.32;;;;;;;;;;5082056;28;20414;-83
2024/01/11 03:43:02;;;;;;;44.38;16.60;;;;;;;;;;5097720;28;20059;-82
2024/01/11 03:45:28;;;;;;;52.20;17.15;;;;;;;;;;5098964;28;20396;-84
2024/01/11 03:47:54;;;;;;;47.88;18.45;;;;;;;;;;5097081;28;20036;-84
2024/01/11 03:50:20;;;;;;;47.88;18.33;;;;;;;;;;5095776;28;20048;-83
2024/01/11 03:52:46;;;;;;;49.05;18.08;;;;;;;;;;5095755;28;20499;-86
2024/01/11 03:55:12;;;;;;;50.17;17.52;;;;;;;;;;5080339;28;20052;-84
2024/01/11 03:57:38;;;;;;;45.67;16.20;;;;;;;;;;5096334;28;20554;-84
2024/01/11 04:00:06;;;;;;;43.28;15.93;;;;;;;;;;5080998;28;20053;-84
2024/01/11 04:02:32;;;;;;;46.72;15.95;;;;;;;;;;5097562;28;20051;-84
2024/01/11 04:04:58;;;;;;;51.90;18.35;;;;;;;;;;5088522;28;20055;-82
2024/01/11 04:07:24;;;;;;;45.55;16.30;;;;;;;;;;5103982;28;20039;-83
2024/01/11 04:09:50;;;;;;;44.80;16.40;;;;;;;;;;5082546;28;20083;-83
2024/01/11 04:12:16;;;;;;;51.38;19.00;;;;;;;;;;5097892;28;20092;-82
2024/01/11 04:14:42;;;;;;;55.00;19.20;;;;;;;;;;5096857;28;20059;-83
2024/01/11 04:17:08;;;;;;;50.88;17.58;;;;;;;;;;5087530;28;20047;-84
2024/01/11 04:19:34;;;;;;;48.72;18.45;;;;;;;;;;5101979;28;20075;-84
2024/01/11 04:22:01;;;;;;;49.65;17.48;;;;;;;;;;5082429;28;20044;-83
2024/01/11 04:24:27;;;;;;;47.13;16.50;;;;;;;;;;5083804;28;20097;-82
2024/01/11 04:26:53;;;;;;;43.20;16.17;;;;;;;;;;5085376;28;20044;-84
2024/01/11 04:29:19;;;;;;;47.05;18.33;;;;;;;;;;5108298;28;20079;-84
2024/01/11 04:31:45;;;;;;;44.45;16.45;;;;;;;;;;5107241;28;20047;-83
2024/01/11 04:34:11;;;;;;;45.13;16.42;;;;;;;;;;5103310;28;20135;-83
2024/01/11 04:36:40;;;;;;;43.72;15.77;;;;;;;;;;5105966;28;20044;-84
2024/01/11 04:39:07;;;;;;;44.78;15.88;;;;;;;;;;5104674;28;20048;-82
2024/01/11 04:41:38;;;;;;;41.40;15.40;;;;;;;;;;5106093;28;20131;-83
2024/01/11 04:44:05;;;;;;;45.28;16.10;;;;;;;;;;5104159;28;20048;-85
2024/01/11 04:46:31;;;;;;;46.03;16.15;;;;;;;;;;5105684;28;20040;-84
2024/01/11 04:48:57;;;;;;;44.20;16.52;;;;;;;;;;5089046;28;20048;-84
2024/01/11 04:51:23;;;;;;;46.92;16.33;;;;;;;;;;5110510;28;20044;-83
2024/01/11 04:53:49;;;;;;;44.83;16.17;;;;;;;;;;5108995;28;20130;-83
2024/01/11 04:56:16;;;;;;;44.60;16.15;;;;;;;;;;5108782;28;20048;-83
2024/01/11 04:58:43;;;;;;;41.72;15.52;;;;;;;;;;5105486;28;20063;-83
2024/01/11 05:01:12;;;;;;;44.22;15.88;;;;;;;;;;5098124;28;20051;-84
2024/01/11 05:03:39;;;;;;;50.88;19.42;;;;;;;;;;5099650;28;20154;-83
2024/01/11 05:06:06;;;;;;;48.17;16.48;;;;;;;;;;5094617;28;20040;-83
2024/01/11 05:08:32;;;;;;;44.08;15.50;;;;;;;;;;5094084;28;20054;-82
2024/01/11 05:10:58;;;;;;;44.45;16.00;;;;;;;;;;5094253;28;20044;-82
2024/01/11 05:13:24;;;;;;;42.85;15.98;;;;;;;;;;5096437;28;20376;-83
2024/01/11 05:15:50;;;;;;;52.20;17.40;;;;;;;;;;5094422;28;20043;-81
2024/01/11 05:18:16;;;;;;;44.55;16.80;;;;;;;;;;5095650;28;20096;-81
2024/01/11 05:20:42;;;;;;;46.10;16.00;;;;;;;;;;5100939;28;20056;-81
2024/01/11 05:23:09;;;;;;;57.25;20.08;;;;;;;;;;5103921;28;20056;-80
2024/01/11 05:25:35;;;;;;;44.67;14.73;;;;;;;;;;5100056;28;20040;-81
2024/01/11 05:28:01;;;;;;;43.47;18.10;;;;;;;;;;5095611;28;20090;-81
2024/01/11 05:30:27;;;;;;;43.65;16.17;;;;;;;;;;5076004;28;20070;-81
2024/01/11 05:32:54;;;;;;;47.08;18.73;;;;;;;;;;5076840;28;20091;-83
2024/01/11 05:35:20;;;;;;;56.58;21.95;;;;;;;;;;5092596;28;20369;-81
2024/01/11 05:37:46;;;;;;;39.15;12.95;;;;;;;;;;5093277;28;20480;-81
2024/01/11 05:40:13;;;;;;;44.70;16.58;;;;;;;;;;5092657;28;20059;-81
2024/01/11 05:42:39;;;;;;;43.75;17.08;;;;;;;;;;5095743;28;20126;-82
2024/01/11 05:45:06;;;;;;;39.92;15.45;;;;;;;;;;5096640;28;20047;-82
2024/01/11 05:47:32;;;;;;;38.58;14.00;;;;;;;;;;5081404;28;20143;-81
2024/01/11 05:49:58;;;;;;;44.60;15.10;;;;;;;;;;5081827;28;20047;-81
2024/01/11 05:52:24;;;;;;;50.85;19.10;;;;;;;;;;5102236;28;20434;-79
2024/01/11 05:54:50;;;;;;;47.75;17.48;;;;;;;;;;5105176;28;20080;-81
2024/01/11 05:57:16;;;;;;;51.35;18.48;;;;;;;;;;5101967;28;20035;-80
2024/01/11 05:59:45;;;;;;;46.40;17.55;;;;;;;;;;5104022;28;20442;-80
2024/01/11 06:02:12;;;;;;;45.85;15.77;;;;;;;;;;5082242;28;20040;-81
2024/01/11 06:04:38;;;;;;;44.17;16.25;;;;;;;;;;5098248;28;20040;-81
2024/01/11 06:07:04;;;;;;;45.50;16.58;;;;;;;;;;5096998;28;20392;-81
2024/01/11 06:09:30;;;;;;;43.70;16.10;;;;;;;;;;5100098;28;20058;-79
2024/01/11 06:11:57;;;;;;;46.40;17.67;;;;;;;;;;5098599;28;20070;-80
2024/01/11 06:14:23;;;;;;;54.67;18.95;;;;;;;;;;5097287;28;20047;-81
2024/01/11 06:16:49;;;;;;;49.50;19.05;;;;;;;;;;5097852;28;20048;-81
2024/01/11 06:19:15;;;;;;;52.35;17.30;;;;;;;;;;5079877;28;20052;-80
2024/01/11 06:21:41;;;;;;;46.70;16.23;;;;;;;;;;5097470;28;20052;-79
2024/01/11 06:24:07;;;;;;;45.78;15.95;;;;;;;;;;5098457;28;20051;-80
2024/01/11 06:26:33;;;;;;;48.53;17.27;;;;;;;;;;5097876;28;20083;-82
2024/01/11 06:28:59;;;;;;;48.22;17.38;;;;;;;;;;5098611;28;20077;-81
2024/01/11 06:31:26;;;;;;;48.28;17.40;;;;;;;;;;5084417;28;20059;-81
2024/01/11 06:33:52;;;;;;;51.17;18.25;;;;;;;;;;5102633;28;20044;-81
2024/01/11 06:36:18;;;;;;;54.35;20.42;;;;;;;;;;5097615;28;20044;-81
2024/01/11 06:38:44;;;;;;;48.92;16.67;;;;;;;;;;5097767;28;20048;-82
2024/01/11 06:41:11;;;;;;;45.95;17.08;;;;;;;;;;5097133;28;20088;-82
2024/01/11 06:43:37;;;;;;;47.50;17.30;;;;;;;;;;5099135;28;20052;-83
2024/01/11 06:46:06;;;;;;;43.45;16.70;;;;;;;;;;5099983;28;20040;-81
2024/01/11 06:48:32;;;;;;;43.42;16.17;;;;;;;;;;5097611;28;20059;-81
2024/01/11 06:50:59;;;;;;;44.55;16.48;;;;;;;;;;5079376;28;20132;-83
2024/01/11 06:53:25;;;;;;;44.53;16.73;;;;;;;;;;5098931;28;20131;-81
2024/01/11 06:55:52;;;;;;;43.75;15.38;;;;;;;;;;5099537;27;20341;-81
2024/01/11 06:58:18;;;;;;;43.25;15.00;;;;;;;;;;5083845;28;20048;-80
2024/01/11 07:00:44;;;;;;;46.38;15.90;;;;;;;;;;5104320;28;20107;-81
2024/01/11 07:03:10;;;;;;;40.60;15.85;;;;;;;;;;5103886;28;20040;-80
2024/01/11 07:05:36;;;;;;;47.00;20.23;;;;;;;;;;5088240;28;20613;-81
2024/01/11 07:08:04;;;;;;;48.05;20.65;;;;;;;;;;5107165;28;20044;-82
2024/01/11 07:10:30;;;;;;;46.33;17.63;;;;;;;;;;5104221;28;20068;-81
2024/01/11 07:12:56;;;;;;;50.92;17.85;;;;;;;;;;5102698;28;20044;-80
2024/01/11 07:15:23;;;;;;;44.20;16.52;;;;;;;;;;5105065;28;20055;-79
2024/01/11 07:17:49;;;;;;;44.05;15.90;;;;;;;;;;5105946;28;20098;-80
2024/01/11 07:20:17;;;;;;;44.05;16.08;;;;;;;;;;5103972;28;20048;-80
2024/01/11 07:22:43;;;;;;;46.30;17.27;;;;;;;;;;5101972;28;20435;-80
2024/01/11 07:25:09;;;;;;;41.08;16.42;;;;;;;;;;5102110;28;20052;-80
2024/01/11 07:27:36;;;;;;;42.20;16.45;;;;;;;;;;5103043;28;20052;-81
2024/01/11 07:30:03;;;;;;;46.78;17.15;;;;;;;;;;5099739;28;20491;-79
2024/01/11 07:32:29;;;;;;;43.65;17.48;;;;;;;;;;5099018;28;20503;-80
2024/01/11 07:34:55;;;;;;;47.47;17.08;;;;;;;;;;5099009;28;20054;-82
2024/01/11 07:37:25;;;;;;;47.63;17.67;;;;;;;;;;5098216;28;20075;-81
2024/01/11 07:39:51;;;;;;;44.83;17.50;;;;;;;;;;5102369;28;20084;-80
2024/01/11 07:42:19;;;;;;;51.40;19.65;;;;;;;;;;5097547;28;20044;-80
2024/01/11 07:44:45;;;;;;;;;;;;;;;;;;5096871;28;20055;-78
2024/01/11 07:47:11;;;;;;;44.65;15.73;;;;;;;;;;5097475;28;20317;-80
2024/01/11 07:49:37;;;;;;;48.00;17.13;;;;;;;;;;5098365;28;20055;-81
2024/01/11 07:52:04;;;;;;;50.30;17.48;;;;;;;;;;5097756;28;20048;-80
2024/01/11 07:54:31;;;;;;;54.08;18.35;;;;;;;;;;5096347;28;20051;-80
2024/01/11 07:56:57;;;;;;;48.73;17.53;;;;;;;;;;5096511;28;20392;-81
2024/01/11 07:59:23;;;;;;;50.15;18.92;;;;;;;;;;5096112;28;20040;-80
2024/01/11 08:01:50;;;;;;;48.83;18.25;;;;;;;;;;5095926;28;20044;-80
2024/01/11 08:04:16;;;;;;;52.63;18.75;;;;;;;;;;5095035;28;20067;-80
2024/01/11 08:06:43;;;;;;;44.97;16.77;;;;;;;;;;5095215;28;20040;-80
2024/01/11 08:09:10;;;;;;;47.90;17.63;;;;;;;;;;5094914;28;20056;-80
2024/01/11 08:11:36;;;;;;;50.85;18.15;;;;;;;;;;5095007;28;20113;-78
2024/01/11 08:14:02;;;;;;;42.70;16.17;;;;;;;;;;5097329;28;20109;-78
2024/01/11 08:16:29;;;;;;;52.53;18.77;;;;;;;;;;5096445;28;20519;-79
2024/01/11 08:18:55;;;;;;;54.03;18.35;;;;;;;;;;5095440;28;20040;-79
2024/01/11 08:21:21;;;;;;;43.60;16.77;;;;;;;;;;5095343;28;20055;-79
2024/01/11 08:23:48;;;;;;;49.27;18.07;;;;;;;;;;5095468;28;20087;-78
2024/01/11 08:26:15;;;;;;;47.20;17.88;;;;;;;;;;5095212;28;20055;-79
2024/01/11 08:28:41;;;;;;;46.83;17.47;;;;;;;;;;5094254;28;20044;-80
2024/01/11 08:31:08;;;;;;;50.90;18.90;;;;;;;;;;5093841;28;20051;-79
2024/01/11 08:33:36;;;;;;;48.47;17.48;;;;;;;;;;5094102;28;20093;-80
2024/01/11 08:36:03;;;;;;;47.53;18.70;;;;;;;;;;5094151;28;20086;-80
2024/01/11 08:38:30;;;;;;;45.70;18.15;;;;;;;;;;5095180;28;20107;-79
2024/01/11 08:40:56;;;;;;;48.90;18.03;;;;;;;;;;5077318;28;20044;-79
2024/01/11 08:43:22;;;;;;;51.05;18.55;;;;;;;;;;5094631;28;20043;-80
2024/01/11 08:45:49;;;;;;;48.40;17.48;;;;;;;;;;5098448;28;20435;-79
2024/01/11 08:48:15;;;;;;;45.60;16.93;;;;;;;;;;5105864;28;20439;-79
2024/01/11 08:50:41;;;;;;;47.58;16.85;;;;;;;;;;5106750;28;20282;-82
2024/01/11 08:53:07;;;;;;;47.28;17.95;;;;;;;;;;5104185;28;20060;-81
2024/01/11 08:55:33;;;;;;;47.00;18.02;;;;;;;;;;5098886;28;20421;-80
2024/01/11 08:57:59;;;;;;;47.28;17.67;;;;;;;;;;5093242;28;20460;-80
2024/01/11 09:00:26;;;;;;;49.10;18.27;;;;;;;;;;5094806;28;20388;-79
2024/01/11 09:02:52;;;;;;;43.55;16.30;;;;;;;;;;5093883;28;20440;-78
2024/01/11 09:05:19;;;;;;;47.03;17.85;;;;;;;;;;5095201;28;20044;-79
2024/01/11 09:07:45;;;;;;;52.73;18.90;;;;;;;;;;5093980;28;20434;-79
2024/01/11 09:10:12;;;;;;;48.58;18.80;;;;;;;;;;5093081;28;20060;-80
2024/01/11 09:12:38;;;;;;;57.20;21.17;;;;;;;;;;5076241;28;20047;-80
2024/01/11 09:15:04;;;;;;;58.13;19.00;;;;;;;;;;5076425;28;20048;-78
2024/01/11 09:17:30;;;;;;;48.92;18.52;;;;;;;;;;5096113;28;20048;-78
2024/01/11 09:19:56;;;;;;;53.25;17.95;;;;;;;;;;5100073;28;20349;-80
2024/01/11 09:22:23;;;;;;;49.45;18.48;;;;;;;;;;5098558;28;20123;-80
2024/01/11 09:24:49;;;;;;;51.20;19.45;;;;;;;;;;5097481;28;20135;-78
2024/01/11 09:27:15;;;;;;;51.38;18.73;;;;;;;;;;5098459;28;20047;-80
2024/01/11 09:29:44;;;;;;;55.88;18.98;;;;;;;;;;5097349;28;20502;-80
2024/01/11 09:32:10;;;;;;;51.10;18.40;;;;;;;;;;5096942;28;20052;-80
2024/01/11 09:34:37;;;;;;;54.30;19.38;;;;;;;;;;5080574;28;20055;-80
2024/01/11 09:37:03;;;;;;;50.22;17.90;;;;;;;;;;5080060;28;20047;-80
2024/01/11 09:39:29;;;;;;;59.28;21.45;;;;;;;;;;5080827;28;20056;-80
2024/01/11 09:41:59;;;;;;;54.65;17.02;;;;;;;;;;5101504;28;20097;-80
2024/01/11 09:44:30;;;;;;;48.60;17.23;;;;;;;;;;5105812;28;20173;-80
2024/01/11 09:46:57;;;;;;;51.72;17.98;;;;;;;;;;5089023;28;20047;-81
2024/01/11 09:49:23;;;;;;;48.08;17.35;;;;;;;;;;5087272;28;20074;-80
2024/01/11 09:51:50;;;;;;;45.13;16.45;;;;;;;;;;5098808;28;20063;-81
2024/01/11 09:54:16;;;;;;;51.22;17.83;;;;;;;;;;5098579;28;20545;-81
2024/01/11 09:56:43;;;;;;;50.13;17.65;;;;;;;;;;5099228;28;20048;-80
2024/01/11 09:59:09;;;;;;;;;;;;;;;;;;5107033;28;20044;-80
2024/01/11 10:01:36;;;;;;;52.80;18.25;;;;;;;;;;5102976;28;20410;-81
2024/01/11 10:04:04;;;;;;;47.85;17.38;;;;;;;;;;5096966;28;20047;-80
2024/01/11 10:06:33;;;;;;;52.83;16.88;;;;;;;;;;5098216;28;20372;-79
2024/01/11 10:08:59;;;;;;;55.90;18.83;;;;;;;;;;5098087;28;20077;-81
2024/01/11 10:11:25;;;;;;;48.95;18.35;;;;;;;;;;5097812;28;20106;-81
2024/01/11 10:13:59;;;;;;;49.65;18.27;;;;;;;;;;5096975;28;20040;-80
2024/01/11 10:16:25;;;;;;;57.40;20.08;;;;;;;;;;5096380;28;20122;-82
2024/01/11 10:18:54;;;;;;;55.28;20.58;;;;;;;;;;5097997;28;20138;-80
2024/01/11 10:21:20;;;;;;;49.88;19.13;;;;;;;;;;5096052;28;20098;-79
2024/01/11 10:23:46;;;;;;;53.95;21.13;;;;;;;;;;5097566;28;20503;-80
2024/01/11 10:26:13;;;;;;;58.30;20.92;;;;;;;;;;5096526;28;20044;-80
2024/01/11 10:28:39;;;;;;;51.88;19.27;;;;;;;;;;5094229;28;20052;-80
2024/01/11 10:31:08;;;;;;;51.78;19.13;;;;;;;;;;5096529;28;20047;-81
2024/01/11 10:33:35;;;;;;;53.72;18.33;;;;;;;;;;5095938;28;20082;-78
2024/01/11 10:36:02;;;;;;;57.05;19.63;;;;;;;;;;5095990;28;20047;-80
2024/01/11 10:38:30;;;;;;;50.00;17.48;;;;;;;;;;5097690;28;20051;-79
2024/01/11 10:41:00;;;;;;;49.30;17.50;;;;;;;;;;5078514;28;20075;-81
2024/01/11 10:43:26;;;;;;;52.03;17.60;;;;;;;;;;5097755;28;20130;-81
2024/01/11 10:45:57;;;;;;;49.53;17.90;;;;;;;;;;5096290;28;20044;-79
2024/01/11 10:48:25;;;;;;;49.97;17.70;;;;;;;;;;5095619;28;20079;-81
2024/01/11 10:50:55;;;;;;;52.08;18.25;;;;;;;;;;5096222;28;20048;-81
2024/01/11 10:53:39;;;;;;;52.47;18.30;;;;;;;;;;5097092;28;20318;-79
2024/01/11 10:56:09;;;;;;;56.20;18.70;;;;;;;;;;5095503;28;20066;-80
2024/01/11 10:58:35;;;;;;;50.28;18.63;;;;;;;;;;5096442;28;20070;-80
2024/01/11 11:01:04;;;;;;;53.97;18.75;;;;;;;;;;5095421;28;20506;-80
2024/01/11 11:03:34;;;;;;;52.30;18.75;;;;;;;;;;5096528;28;20090;-80
2024/01/11 11:06:01;;;;;;;58.70;19.70;;;;;;;;;;5090781;28;20048;-79
2024/01/11 11:08:28;;;;;;;49.00;18.25;;;;;;;;;;5096214;28;20054;-80
2024/01/11 11:10:57;;;;;;;50.85;17.95;;;;;;;;;;5105279;28;20104;-79
2024/01/11 11:13:24;;;;;;;57.25;18.88;;;;;;;;;;5101264;28;20376;-79
2024/01/11 11:15:50;;;;;;;54.28;18.73;;;;;;;;;;5102552;28;20069;-78
2024/01/11 11:18:17;;;;;;;57.38;19.95;;;;;;;;;;5098458;28;20044;-78
2024/01/11 11:20:43;;;;;;;58.33;20.23;;;;;;;;;;5095550;28;20048;-79
2024/01/11 11:23:11;;;;;;;60.28;18.83;;;;;;;;;;5099815;28;20051;-79
2024/01/11 11:25:38;;;;;;;56.50;17.48;;;;;;;;;;5100451;28;20130;-77
2024/01/11 11:28:05;;;;;;;59.80;19.17;;;;;;;;;;5102770;28;20052;-79
2024/01/11 11:30:31;;;;;;;54.88;17.92;;;;;;;;;;5101954;28;20040;-80
2024/01/11 11:32:57;;;;;;;53.55;19.70;;;;;;;;;;5103271;28;20123;-79
2024/01/11 11:35:24;;;;;;;55.55;20.17;;;;;;;;;;5101731;28;20048;-80
2024/01/11 11:37:57;;;;;;;51.67;17.65;;;;;;;;;;5097668;28;20073;-78
2024/01/11 11:40:36;;;;;;;45.53;16.35;;;;;;;;;;5115424;27;20086;-79
2024/01/11 11:43:04;;;;;;;50.50;17.75;;;;;;;;;;5096245;28;20044;-79
2024/01/11 11:45:31;;;;;;;51.90;17.08;;;;;;;;;;5094437;28;20090;-82
2024/01/11 11:47:58;;;;;;;48.30;16.98;;;;;;;;;;5094369;28;20059;-79
2024/01/11 11:50:24;;;;;;;52.73;19.13;;;;;;;;;;5097156;28;20040;-78
2024/01/11 11:52:57;;;;;;;61.13;18.85;;;;;;;;;;5078500;28;20373;-79
2024/01/11 11:55:25;;;;;;;53.80;17.63;;;;;;;;;;5094440;28;20506;-79
2024/01/11 11:57:52;;;;;;;45.65;16.48;;;;;;;;;;5094707;28;20043;-78
2024/01/11 12:00:18;;;;;;;52.22;18.63;;;;;;;;;;5093821;28;20048;-78
2024/01/11 12:02:44;;;;;;;53.75;17.90;;;;;;;;;;5095081;28;20055;-78
2024/01/11 12:05:10;;;;;;;51.40;18.08;;;;;;;;;;5095390;28;20052;-78
2024/01/11 12:07:37;;;;;;;45.50;16.75;;;;;;;;;;5093828;28;20048;-81
2024/01/11 12:10:03;;;;;;;47.20;16.90;;;;;;;;;;5093234;28;20132;-79
2024/01/11 12:12:29;;;;;;;49.85;16.13;;;;;;;;;;5093199;28;20052;-79
2024/01/11 12:14:55;;;;;;;52.45;17.50;;;;;;;;;;5093577;28;20048;-78
2024/01/11 12:17:21;;;;;;;47.55;16.50;;;;;;;;;;5095465;28;20085;-78
2024/01/11 12:19:48;;;;;;;47.60;17.10;;;;;;;;;;5099500;28;20048;-79
2024/01/11 12:22:15;;;;;;;47.15;17.55;;;;;;;;;;5100102;28;20044;-79
2024/01/11 12:24:41;;;;;;;46.50;16.52;;;;;;;;;;5093439;28;20125;-78
2024/01/11 12:27:07;;;;;;;49.67;17.33;;;;;;;;;;5094353;28;20048;-78
2024/01/11 12:29:33;;;;;;;53.75;17.75;;;;;;;;;;5093907;28;20040;-78
2024/01/11 12:32:00;;;;;;;55.50;20.77;;;;;;;;;;5093039;28;20047;-78
2024/01/11 12:34:26;;;;;;;51.83;19.20;;;;;;;;;;5093304;28;20127;-78
2024/01/11 12:36:55;;;;;;;53.30;19.25;;;;;;;;;;5093892;28;20044;-78
2024/01/11 12:39:22;;;;;;;50.75;18.15;;;;;;;;;;5093977;28;20511;-76
2024/01/11 12:41:50;;;;;;;49.50;18.08;;;;;;;;;;5094108;28;20377;-79
2024/01/11 12:44:18;;;;;;;54.33;19.52;;;;;;;;;;5092663;28;20051;-79
2024/01/11 12:46:44;;;;;;;53.63;19.02;;;;;;;;;;5093150;28;20438;-79
2024/01/11 12:49:11;;;;;;;56.53;18.73;;;;;;;;;;5093816;28;20044;-78
2024/01/11 12:51:37;;;;;;;48.58;17.63;;;;;;;;;;5092886;28;20093;-78
2024/01/11 12:54:04;;;;;;;52.10;18.58;;;;;;;;;;5093060;28;20044;-79
2024/01/11 12:56:30;;;;;;;53.80;18.90;;;;;;;;;;5092802;28;20080;-78
2024/01/11 12:59:09;;;;;;;49.15;16.88;;;;;;;;;;5092808;28;20399;-78
2024/01/11 13:01:36;;;;;;;56.63;17.98;;;;;;;;;;5075703;28;20071;-79
2024/01/11 13:04:02;;;;;;;52.13;18.05;;;;;;;;;;5093730;28;20120;-78
2024/01/11 13:06:31;;;;;;;49.22;17.42;;;;;;;;;;5094306;28;20059;-79
2024/01/11 13:08:57;;;;;;;46.17;15.55;;;;;;;;;;5092494;28;20047;-78
2024/01/11 13:11:24;;;;;;;49.70;17.27;;;;;;;;;;5093666;28;20097;-79
2024/01/11 13:13:50;;;;;;;46.92;16.45;;;;;;;;;;5076294;28;20131;-78
2024/01/11 13:16:19;;;;;;;46.47;16.15;;;;;;;;;;5093374;28;20445;-78
2024/01/11 13:18:48;;;;;;;50.78;15.68;;;;;;;;;;5094190;28;20420;-79
2024/01/11 13:21:15;;;;;;;48.83;15.93;;;;;;;;;;5093884;28;20205;-78
2024/01/11 13:23:41;;;;;;;46.20;16.20;;;;;;;;;;5092837;28;20055;-79
2024/01/11 13:26:08;;;;;;;50.50;16.40;;;;;;;;;;5092451;28;20048;-79
2024/01/11 13:28:34;;;;;;;;;;;;;;;;;;5093460;28;20044;-79
2024/01/11 13:31:02;;;;;;;45.42;15.25;;;;;;;;;;5093751;28;19920;-79
2024/01/11 13:33:28;;;;;;;48.88;15.38;;;;;;;;;;5093212;28;20458;-79
2024/01/11 13:35:54;;;;;;;50.47;16.10;;;;;;;;;;5092324;28;20040;-81
2024/01/11 13:38:20;;;;;;;46.40;15.18;;;;;;;;;;5092068;28;20286;-79
2024/01/11 13:40:46;;;;;;;49.47;16.23;;;;;;;;;;5092080;28;20044;-78
2024/01/11 13:43:12;;;;;;;51.53;15.95;;;;;;;;;;5092467;28;20036;-78
2024/01/11 13:45:39;;;;;;;49.60;16.05;;;;;;;;;;5092127;28;20052;-79
2024/01/11 13:48:06;;;;;;;45.53;15.07;;;;;;;;;;5075254;28;20047;-79
2024/01/11 13:50:32;;;;;;;48.35;16.25;;;;;;;;;;5091755;28;20522;-79
2024/01/11 13:52:58;;;;;;;48.20;16.13;;;;;;;;;;5092090;28;20138;-79
2024/01/11 13:55:24;;;;;;;51.85;14.77;;;;;;;;;;5093376;28;20042;-78
2024/01/11 13:57:51;;;;;;;49.67;14.65;;;;;;;;;;5093756;28;20055;-78
2024/01/11 14:00:18;;;;;;;53.30;16.57;;;;;;;;;;5093467;28;20036;-78
2024/01/11 14:02:44;;;;;;;44.78;14.85;;;;;;;;;;5093673;28;20044;-79
2024/01/11 14:05:13;;;;;;;48.13;15.30;;;;;;;;;;5095434;28;20055;-79
2024/01/11 14:07:43;;;;;;;48.03;14.82;;;;;;;;;;5095690;28;20047;-78
2024/01/11 14:10:09;;;;;;;44.42;14.30;;;;;;;;;;5095678;28;20055;-79
2024/01/11 14:12:36;;;;;;;43.70;13.88;;;;;;;;;;5096611;28;20044;-77
2024/01/11 14:15:03;;;;;;;49.40;15.37;;;;;;;;;;5079433;28;20051;-80